Time,TemperatureF,DewpointF,PressureIn,WindDirection,WindDirectionDegrees,WindSpeedMPH,WindSpeedGustMPH,Humidity,HourlyPrecipIn,Conditions,Clouds,dailyrainin,SoftwareType,DateUTC
2013-07-15 00:03:00,74.5,72.0,30.20,East,79,0.0,0.0,92,0.00,,,0.00,weatherlink.com 1.10,2013-07-15 04:03:00,
2013-07-15 00:18:00,74.4,72.0,30.20,NE,53,0.0,2.0,93,0.00,,,0.00,weatherlink.com 1.10,2013-07-15 04:18:00,
2013-07-15 00:33:00,74.2,72.0,30.20,East,98,0.0,1.0,93,0.00,,,0.00,weatherlink.com 1.10,2013-07-15 04:33:00,
2013-07-15 00:48:00,74.2,72.0,30.20,East,88,0.0,0.0,93,0.00,,,0.00,weatherlink.com 1.10,2013-07-15 04:48:00,
2013-07-15 01:03:00,74.0,72.0,30.21,SE,133,0.0,2.0,93,0.00,,,0.00,weatherlink.com 1.10,2013-07-15 05:03:00,
2013-07-15 01:18:00,74.0,72.0,30.21,ENE,67,0.0,1.0,93,0.00,,,0.00,weatherlink.com 1.10,2013-07-15 05:18:00,
2013-07-15 01:34:00,74.0,72.0,30.20,ENE,65,0.0,1.0,93,0.00,,,0.00,weatherlink.com 1.10,2013-07-15 05:34:00,
2013-07-15 01:49:00,73.9,72.0,30.20,ENE,74,0.0,1.0,93,0.00,,,0.00,weatherlink.com 1.10,2013-07-15 05:49:00,
2013-07-15 02:04:00,73.6,72.0,30.20,ESE,109,0.0,1.0,93,0.00,,,0.00,weatherlink.com 1.10,2013-07-15 06:04:00,
2013-07-15 02:19:00,73.9,72.0,30.20,NE,53,0.0,1.0,93,0.00,,,0.00,weatherlink.com 1.10,2013-07-15 06:19:00,
2013-07-15 02:34:00,73.9,72.0,30.21,SE,128,1.0,1.0,93,0.00,,,0.00,weatherlink.com 1.10,2013-07-15 06:34:00,
2013-07-15 02:49:00,73.7,72.0,30.20,NE,55,0.0,1.0,93,0.00,,,0.00,weatherlink.com 1.10,2013-07-15 06:49:00,
2013-07-15 03:04:00,73.5,71.0,30.21,NE,55,0.0,0.0,93,0.00,,,0.00,weatherlink.com 1.10,2013-07-15 07:04:00,
2013-07-15 03:19:00,73.3,72.0,30.21,ENE,57,0.0,1.0,94,0.00,,,0.00,weatherlink.com 1.10,2013-07-15 07:19:00,
2013-07-15 03:34:00,73.2,71.0,30.21,NE,49,0.0,1.0,94,0.00,,,0.00,weatherlink.com 1.10,2013-07-15 07:34:00,
2013-07-15 03:49:00,73.1,71.0,30.20,ENE,78,0.0,1.0,94,0.00,,,0.00,weatherlink.com 1.10,2013-07-15 07:49:00,
2013-07-15 04:04:00,73.1,71.0,30.21,ENE,67,0.0,1.0,94,0.00,,,0.00,weatherlink.com 1.10,2013-07-15 08:04:00,
2013-07-15 04:19:00,73.0,72.0,30.21,NE,42,0.0,1.0,95,0.00,,,0.00,weatherlink.com 1.10,2013-07-15 08:19:00,
2013-07-15 04:34:00,72.8,71.0,30.21,SE,124,0.0,1.0,94,0.00,,,0.00,weatherlink.com 1.10,2013-07-15 08:34:00,
2013-07-15 04:49:00,72.7,71.0,30.21,ENE,63,0.0,0.0,95,0.00,,,0.00,weatherlink.com 1.10,2013-07-15 08:49:00,
2013-07-15 05:04:00,72.5,71.0,30.21,ENE,71,0.0,1.0,96,0.00,,,0.00,weatherlink.com 1.10,2013-07-15 09:04:00,
2013-07-15 05:19:00,72.4,71.0,30.21,ENE,71,0.0,0.0,96,0.00,,,0.00,weatherlink.com 1.10,2013-07-15 09:19:00,
2013-07-15 05:34:00,72.1,71.0,30.22,ENE,71,0.0,0.0,96,0.00,,,0.00,weatherlink.com 1.10,2013-07-15 09:34:00,
2013-07-15 05:49:00,71.9,71.0,30.22,ENE,71,0.0,0.0,96,0.00,,,0.00,weatherlink.com 1.10,2013-07-15 09:49:00,
2013-07-15 06:04:00,71.7,71.0,30.22,ENE,75,0.0,0.0,96,0.00,,,0.00,weatherlink.com 1.10,2013-07-15 10:04:00,
2013-07-15 06:19:00,71.6,70.0,30.22,ENE,75,0.0,0.0,96,0.00,,,0.00,weatherlink.com 1.10,2013-07-15 10:19:00,
2013-07-15 06:34:00,71.5,71.0,30.22,ENE,75,0.0,0.0,97,0.00,,,0.00,weatherlink.com 1.10,2013-07-15 10:34:00,
2013-07-15 06:49:00,71.7,71.0,30.23,ENE,75,0.0,0.0,97,0.00,,,0.00,weatherlink.com 1.10,2013-07-15 10:49:00,
2013-07-15 07:04:00,71.8,71.0,30.23,ENE,75,0.0,0.0,97,0.00,,,0.00,weatherlink.com 1.10,2013-07-15 11:04:00,
2013-07-15 07:19:00,72.0,71.0,30.24,North,350,0.0,0.0,97,0.00,,,0.00,weatherlink.com 1.10,2013-07-15 11:19:00,
2013-07-15 07:34:00,72.2,71.0,30.24,East,82,0.0,1.0,97,0.00,,,0.00,weatherlink.com 1.10,2013-07-15 11:34:00,
2013-07-15 07:49:00,72.6,72.0,30.24,WSW,238,0.0,1.0,98,0.00,,,0.00,weatherlink.com 1.10,2013-07-15 11:49:00,
2013-07-15 08:04:00,73.1,73.0,30.24,SE,146,0.0,1.0,98,0.00,,,0.00,weatherlink.com 1.10,2013-07-15 12:04:00,
2013-07-15 08:19:00,73.5,73.0,30.25,South,183,0.0,2.0,98,0.00,,,0.00,weatherlink.com 1.10,2013-07-15 12:19:00,
2013-07-15 08:34:00,73.8,73.0,30.25,South,184,0.0,2.0,97,0.00,,,0.00,weatherlink.com 1.10,2013-07-15 12:34:00,
2013-07-15 08:49:00,74.4,74.0,30.25,South,181,0.0,3.0,97,0.00,,,0.00,weatherlink.com 1.10,2013-07-15 12:49:00,
2013-07-15 09:04:00,75.0,74.0,30.25,SSW,202,0.0,4.0,96,0.00,,,0.00,weatherlink.com 1.10,2013-07-15 13:04:00,
2013-07-15 09:19:00,75.7,74.0,30.26,SE,124,0.0,1.0,95,0.00,,,0.00,weatherlink.com 1.10,2013-07-15 13:19:00,
2013-07-15 09:34:00,76.6,74.0,30.26,SE,142,1.0,2.0,92,0.00,,,0.00,weatherlink.com 1.10,2013-07-15 13:34:00,
2013-07-15 09:49:00,77.5,74.0,30.26,SE,140,0.0,4.0,89,0.00,,,0.00,weatherlink.com 1.10,2013-07-15 13:49:00,
2013-07-15 10:04:00,78.4,74.0,30.26,NW,324,0.0,1.0,87,0.00,,,0.00,weatherlink.com 1.10,2013-07-15 14:04:00,
2013-07-15 10:20:00,79.2,75.0,30.26,North,360,0.0,4.0,86,0.00,,,0.00,weatherlink.com 1.10,2013-07-15 14:20:00,
2013-07-15 10:35:00,80.2,74.0,30.25,SW,215,0.0,2.0,82,0.00,,,0.00,weatherlink.com 1.10,2013-07-15 14:35:00,
2013-07-15 10:50:00,80.9,75.0,30.25,East,86,1.0,1.0,82,0.00,,,0.00,weatherlink.com 1.10,2013-07-15 14:50:00,
2013-07-15 11:05:00,81.5,75.0,30.26,WNW,283,2.0,3.0,80,0.00,,,0.00,weatherlink.com 1.10,2013-07-15 15:05:00,
2013-07-15 11:20:00,82.6,76.0,30.26,SE,138,4.0,4.0,80,0.00,,,0.00,weatherlink.com 1.10,2013-07-15 15:20:00,
2013-07-15 11:35:00,84.2,76.0,30.26,West,265,0.0,3.0,75,0.00,,,0.00,weatherlink.com 1.10,2013-07-15 15:35:00,
2013-07-15 12:05:00,87.7,76.0,30.26,WNW,285,0.0,3.0,68,0.00,,,0.00,weatherlink.com 1.10,2013-07-15 16:05:00,
2013-07-15 12:20:00,89.1,78.0,30.26,WNW,301,2.0,4.0,70,0.00,,,0.00,weatherlink.com 1.10,2013-07-15 16:20:00,
2013-07-15 12:35:00,89.0,79.0,30.26,West,266,0.0,3.0,73,0.00,,,0.00,weatherlink.com 1.10,2013-07-15 16:35:00,
2013-07-15 12:50:00,89.3,78.0,30.25,NNW,331,0.0,3.0,69,0.00,,,0.00,weatherlink.com 1.10,2013-07-15 16:50:00,
2013-07-15 13:50:00,87.7,79.0,30.25,SSW,199,0.0,1.0,74,0.00,,,0.00,weatherlink.com 1.10,2013-07-15 17:50:00,
2013-07-15 14:20:00,87.3,79.0,30.24,SW,215,0.0,1.0,75,0.00,,,0.00,weatherlink.com 1.10,2013-07-15 18:20:00,
2013-07-15 14:35:00,86.1,79.0,30.24,West,260,0.0,1.0,78,0.00,,,0.00,weatherlink.com 1.10,2013-07-15 18:35:00,
2013-07-15 14:50:00,85.2,78.0,30.24,NNE,26,0.0,1.0,80,0.00,,,0.00,weatherlink.com 1.10,2013-07-15 18:50:00,
2013-07-15 15:05:00,84.5,76.0,30.24,West,261,0.0,0.0,76,0.00,,,0.00,weatherlink.com 1.10,2013-07-15 19:05:00,
2013-07-15 15:20:00,85.0,78.0,30.23,West,261,0.0,0.0,80,0.00,,,0.00,weatherlink.com 1.10,2013-07-15 19:20:00,
2013-07-15 15:35:00,87.5,80.0,30.23,SW,229,0.0,1.0,77,0.00,,,0.00,weatherlink.com 1.10,2013-07-15 19:35:00,
2013-07-15 15:50:00,88.9,79.0,30.23,WSW,252,0.0,2.0,73,0.00,,,0.00,weatherlink.com 1.10,2013-07-15 19:50:00,
2013-07-15 16:05:00,87.9,78.0,30.23,NNW,348,0.0,0.0,73,0.00,,,0.00,weatherlink.com 1.10,2013-07-15 20:05:00,
2013-07-15 16:20:00,88.7,79.0,30.22,SE,136,0.0,1.0,72,0.00,,,0.00,weatherlink.com 1.10,2013-07-15 20:20:00,
2013-07-15 16:35:00,88.5,79.0,30.22,SSW,198,0.0,1.0,73,0.00,,,0.00,weatherlink.com 1.10,2013-07-15 20:35:00,
2013-07-15 16:50:00,86.6,78.0,30.21,SSW,198,0.0,0.0,75,0.00,,,0.00,weatherlink.com 1.10,2013-07-15 20:50:00,
2013-07-15 17:05:00,86.2,79.0,30.21,ESE,103,3.0,3.0,78,0.00,,,0.00,weatherlink.com 1.10,2013-07-15 21:05:00,
2013-07-15 17:20:00,87.6,78.0,30.21,East,101,0.0,2.0,73,0.00,,,0.00,weatherlink.com 1.10,2013-07-15 21:20:00,
2013-07-15 17:50:00,86.1,79.0,30.20,SSE,152,0.0,0.0,78,0.00,,,0.00,weatherlink.com 1.10,2013-07-15 21:50:00,
2013-07-15 18:20:00,85.3,78.0,30.20,SSW,202,0.0,2.0,78,0.00,,,0.00,weatherlink.com 1.10,2013-07-15 22:20:00,
2013-07-15 18:35:00,84.3,77.0,30.20,ENE,69,0.0,2.0,79,0.00,,,0.00,weatherlink.com 1.10,2013-07-15 22:35:00,
2013-07-15 18:50:00,84.2,77.0,30.20,SW,222,1.0,2.0,79,0.00,,,0.00,weatherlink.com 1.10,2013-07-15 22:50:00,
2013-07-15 19:05:00,84.3,77.0,30.20,West,265,0.0,0.0,79,0.00,,,0.00,weatherlink.com 1.10,2013-07-15 23:05:00,
2013-07-15 19:35:00,83.5,76.0,30.20,ENE,57,0.0,3.0,79,0.00,,,0.00,weatherlink.com 1.10,2013-07-15 23:35:00,
2013-07-15 19:50:00,83.1,76.0,30.20,ENE,61,0.0,1.0,78,0.00,,,0.00,weatherlink.com 1.10,2013-07-15 23:50:00,
2013-07-15 20:05:00,82.5,76.0,30.20,East,99,0.0,1.0,80,0.00,,,0.00,weatherlink.com 1.10,2013-07-16 00:05:00,
2013-07-15 20:20:00,81.8,76.0,30.20,East,99,0.0,0.0,83,0.00,,,0.00,weatherlink.com 1.10,2013-07-16 00:20:00,
2013-07-15 20:51:00,80.5,74.0,30.20,SE,143,0.0,0.0,81,0.00,,,0.00,weatherlink.com 1.10,2013-07-16 00:51:00,
2013-07-15 21:05:00,79.8,74.0,30.20,SE,143,0.0,0.0,82,0.00,,,0.00,weatherlink.com 1.10,2013-07-16 01:05:00,
2013-07-15 21:20:00,79.4,74.0,30.21,SE,143,0.0,0.0,83,0.00,,,0.00,weatherlink.com 1.10,2013-07-16 01:20:00,
2013-07-15 21:35:00,79.0,74.0,30.22,SE,143,0.0,0.0,85,0.00,,,0.00,weatherlink.com 1.10,2013-07-16 01:35:00,
2013-07-15 22:05:00,78.2,75.0,30.24,SE,143,0.0,0.0,89,0.00,,,0.00,weatherlink.com 1.10,2013-07-16 02:05:00,
2013-07-15 22:35:00,77.1,73.0,30.25,SE,143,0.0,0.0,88,0.00,,,0.00,weatherlink.com 1.10,2013-07-16 02:35:00,
2013-07-15 22:50:00,76.7,73.0,30.25,SE,143,0.0,0.0,89,0.00,,,0.00,weatherlink.com 1.10,2013-07-16 02:50:00,
2013-07-15 23:05:00,76.3,74.0,30.25,SE,143,0.0,0.0,91,0.00,,,0.00,weatherlink.com 1.10,2013-07-16 03:05:00,
2013-07-15 23:35:00,75.8,74.0,30.25,SE,143,0.0,0.0,93,0.00,,,0.00,weatherlink.com 1.10,2013-07-16 03:35:00,
2013-07-15 23:50:00,75.4,73.0,30.25,SE,143,0.0,0.0,93,0.00,,,0.00,weatherlink.com 1.10,2013-07-16 03:50:00,